sensor_id;sensor_type;location;lat;lon;timestamp;temperature;humidity
29939;DHT22;16799;50.844;5.304;2022-12-18T00:00:43;-6.90;99.90
29939;DHT22;16799;50.844;5.304;2022-12-18T00:03:09;-6.90;99.90
29939;DHT22;16799;50.844;5.304;2022-12-18T00:05:35;-7.00;99.90
29939;DHT22;16799;50.844;5.304;2022-12-18T00:08:02;-7.10;99.90
29939;DHT22;16799;50.844;5.304;2022-12-18T00:10:28;-7.10;99.90
29939;DHT22;16799;50.844;5.304;2022-12-18T00:12:54;-7.10;99.90
29939;DHT22;16799;50.844;5.304;2022-12-18T00:15:20;-7.00;99.90
29939;DHT22;16799;50.844;5.304;2022-12-18T00:17:46;-7.00;99.90
29939;DHT22;16799;50.844;5.304;2022-12-18T00:20:11;-7.10;99.90
29939;DHT22;16799;50.844;5.304;2022-12-18T00:22:37;-7.10;99.90
29939;DHT22;16799;50.844;5.304;2022-12-18T00:25:03;-7.10;99.90
29939;DHT22;16799;50.844;5.304;2022-12-18T00:27:29;-7.20;99.90
29939;DHT22;16799;50.844;5.304;2022-12-18T00:29:54;-7.20;99.90
29939;DHT22;16799;50.844;5.304;2022-12-18T00:32:20;-7.40;99.90
29939;DHT22;16799;50.844;5.304;2022-12-18T00:34:46;-7.40;99.90
29939;DHT22;16799;50.844;5.304;2022-12-18T00:37:11;-7.50;99.90
29939;DHT22;16799;50.844;5.304;2022-12-18T00:39:37;-7.60;99.90
29939;DHT22;16799;50.844;5.304;2022-12-18T00:42:03;-7.60;99.90
29939;DHT22;16799;50.844;5.304;2022-12-18T00:44:47;-7.60;99.90
29939;DHT22;16799;50.844;5.304;2022-12-18T00:47:12;-7.70;99.90
29939;DHT22;16799;50.844;5.304;2022-12-18T00:49:38;-7.70;99.90
29939;DHT22;16799;50.844;5.304;2022-12-18T00:52:04;-7.60;99.90
29939;DHT22;16799;50.844;5.304;2022-12-18T00:54:29;-7.80;99.90
29939;DHT22;16799;50.844;5.304;2022-12-18T00:56:55;-8.00;99.90
29939;DHT22;16799;50.844;5.304;2022-12-18T00:59:21;-8.10;99.90
29939;DHT22;16799;50.844;5.304;2022-12-18T01:01:47;-7.90;99.90
29939;DHT22;16799;50.844;5.304;2022-12-18T01:04:13;-7.80;99.90
29939;DHT22;16799;50.844;5.304;2022-12-18T01:06:39;-7.80;99.90
29939;DHT22;16799;50.844;5.304;2022-12-18T01:09:05;-7.80;99.90
29939;DHT22;16799;50.844;5.304;2022-12-18T01:11:30;-7.90;99.90
29939;DHT22;16799;50.844;5.304;2022-12-18T01:13:56;-7.90;99.90
29939;DHT22;16799;50.844;5.304;2022-12-18T01:16:22;-7.90;99.90
29939;DHT22;16799;50.844;5.304;2022-12-18T01:18:51;-7.80;99.90
29939;DHT22;16799;50.844;5.304;2022-12-18T01:21:19;-7.80;99.90
29939;DHT22;16799;50.844;5.304;2022-12-18T01:23:45;-7.80;99.90
29939;DHT22;16799;50.844;5.304;2022-12-18T01:26:14;-7.80;99.90
29939;DHT22;16799;50.844;5.304;2022-12-18T01:28:40;-7.80;99.90
29939;DHT22;16799;50.844;5.304;2022-12-18T01:33:42;-7.70;99.90
29939;DHT22;16799;50.844;5.304;2022-12-18T01:36:27;-7.70;99.90
29939;DHT22;16799;50.844;5.304;2022-12-18T01:38:53;-7.80;99.90
29939;DHT22;16799;50.844;5.304;2022-12-18T01:41:22;-7.80;99.90
29939;DHT22;16799;50.844;5.304;2022-12-18T01:43:55;-7.80;99.90
29939;DHT22;16799;50.844;5.304;2022-12-18T01:46:25;-7.80;99.90
29939;DHT22;16799;50.844;5.304;2022-12-18T01:49:00;-7.80;99.90
29939;DHT22;16799;50.844;5.304;2022-12-18T01:51:27;-7.90;99.90
29939;DHT22;16799;50.844;5.304;2022-12-18T01:53:55;-8.10;99.90
29939;DHT22;16799;50.844;5.304;2022-12-18T01:56:21;-8.10;99.90
29939;DHT22;16799;50.844;5.304;2022-12-18T02:01:23;-8.00;99.90
29939;DHT22;16799;50.844;5.304;2022-12-18T02:03:50;-8.10;99.90
29939;DHT22;16799;50.844;5.304;2022-12-18T02:06:32;-8.10;99.90
29939;DHT22;16799;50.844;5.304;2022-12-18T02:09:20;-8.00;99.90
29939;DHT22;16799;50.844;5.304;2022-12-18T02:12:06;-8.00;99.90
29939;DHT22;16799;50.844;5.304;2022-12-18T02:14:44;-8.00;99.90
29939;DHT22;16799;50.844;5.304;2022-12-18T02:17:20;-8.00;99.90
29939;DHT22;16799;50.844;5.304;2022-12-18T02:20:05;-8.10;99.90
29939;DHT22;16799;50.844;5.304;2022-12-18T02:22:44;-8.20;99.90
29939;DHT22;16799;50.844;5.304;2022-12-18T02:28:20;-8.20;99.90
29939;DHT22;16799;50.844;5.304;2022-12-18T02:30:49;-8.20;99.90
29939;DHT22;16799;50.844;5.304;2022-12-18T02:33:19;-8.30;99.90
29939;DHT22;16799;50.844;5.304;2022-12-18T02:35:47;-8.30;99.90
29939;DHT22;16799;50.844;5.304;2022-12-18T02:38:14;-8.30;99.90
29939;DHT22;16799;50.844;5.304;2022-12-18T02:40:41;-8.30;99.90
29939;DHT22;16799;50.844;5.304;2022-12-18T02:43:14;-8.40;99.90
29939;DHT22;16799;50.844;5.304;2022-12-18T02:45:50;-8.50;99.90
29939;DHT22;16799;50.844;5.304;2022-12-18T02:48:21;-8.50;99.90
29939;DHT22;16799;50.844;5.304;2022-12-18T02:51:14;-8.40;99.90
29939;DHT22;16799;50.844;5.304;2022-12-18T02:53:57;-8.40;99.90
29939;DHT22;16799;50.844;5.304;2022-12-18T02:56:30;-8.40;99.90
29939;DHT22;16799;50.844;5.304;2022-12-18T02:59:02;-8.40;99.90
29939;DHT22;16799;50.844;5.304;2022-12-18T03:01:50;-8.40;99.90
29939;DHT22;16799;50.844;5.304;2022-12-18T03:04:43;-8.50;99.90
29939;DHT22;16799;50.844;5.304;2022-12-18T03:07:16;-8.60;99.90
29939;DHT22;16799;50.844;5.304;2022-12-18T03:09:47;-8.50;99.90
29939;DHT22;16799;50.844;5.304;2022-12-18T03:12:24;-8.60;99.90
29939;DHT22;16799;50.844;5.304;2022-12-18T03:15:03;-8.50;99.90
29939;DHT22;16799;50.844;5.304;2022-12-18T03:17:31;-8.50;99.90
29939;DHT22;16799;50.844;5.304;2022-12-18T03:20:04;-8.50;99.90
29939;DHT22;16799;50.844;5.304;2022-12-18T03:22:32;-8.60;99.90
29939;DHT22;16799;50.844;5.304;2022-12-18T03:25:00;-8.50;99.90
29939;DHT22;16799;50.844;5.304;2022-12-18T03:27:28;-8.70;99.90
29939;DHT22;16799;50.844;5.304;2022-12-18T03:30:03;-8.70;99.90
29939;DHT22;16799;50.844;5.304;2022-12-18T03:32:38;-8.70;99.90
29939;DHT22;16799;50.844;5.304;2022-12-18T03:35:07;-8.70;99.90
29939;DHT22;16799;50.844;5.304;2022-12-18T03:37:33;-8.60;99.90
29939;DHT22;16799;50.844;5.304;2022-12-18T03:39:59;-8.60;99.90
29939;DHT22;16799;50.844;5.304;2022-12-18T03:48:51;-8.50;99.90
29939;DHT22;16799;50.844;5.304;2022-12-18T03:54:11;-8.50;99.90
29939;DHT22;16799;50.844;5.304;2022-12-18T03:56:46;-8.50;99.90
29939;DHT22;16799;50.844;5.304;2022-12-18T03:59:14;-8.50;99.90
29939;DHT22;16799;50.844;5.304;2022-12-18T04:01:47;-8.60;99.90
29939;DHT22;16799;50.844;5.304;2022-12-18T04:04:15;-8.60;99.90
29939;DHT22;16799;50.844;5.304;2022-12-18T04:06:43;-8.70;99.90
29939;DHT22;16799;50.844;5.304;2022-12-18T04:09:10;-8.70;99.90
29939;DHT22;16799;50.844;5.304;2022-12-18T04:11:36;-8.60;99.90
29939;DHT22;16799;50.844;5.304;2022-12-18T04:14:02;-8.90;99.90
29939;DHT22;16799;50.844;5.304;2022-12-18T04:16:27;-9.20;99.90
29939;DHT22;16799;50.844;5.304;2022-12-18T04:18:54;-9.20;99.90
29939;DHT22;16799;50.844;5.304;2022-12-18T04:21:20;-9.20;99.90
29939;DHT22;16799;50.844;5.304;2022-12-18T04:23:45;-9.00;99.90
29939;DHT22;16799;50.844;5.304;2022-12-18T04:26:11;-8.90;99.90
29939;DHT22;16799;50.844;5.304;2022-12-18T04:28:37;-8.90;99.90
29939;DHT22;16799;50.844;5.304;2022-12-18T04:31:03;-8.70;99.90
29939;DHT22;16799;50.844;5.304;2022-12-18T04:33:28;-8.60;99.90
29939;DHT22;16799;50.844;5.304;2022-12-18T04:35:54;-8.90;99.90
29939;DHT22;16799;50.844;5.304;2022-12-18T04:38:20;-9.10;99.90
29939;DHT22;16799;50.844;5.304;2022-12-18T04:40:46;-9.10;99.90
29939;DHT22;16799;50.844;5.304;2022-12-18T04:43:12;-9.10;99.90
29939;DHT22;16799;50.844;5.304;2022-12-18T04:45:37;-9.00;99.90
29939;DHT22;16799;50.844;5.304;2022-12-18T04:48:04;-9.00;99.90
29939;DHT22;16799;50.844;5.304;2022-12-18T04:50:30;-9.20;99.90
29939;DHT22;16799;50.844;5.304;2022-12-18T04:52:56;-9.20;99.90
29939;DHT22;16799;50.844;5.304;2022-12-18T04:55:22;-9.10;99.90
29939;DHT22;16799;50.844;5.304;2022-12-18T04:57:48;-9.00;99.90
29939;DHT22;16799;50.844;5.304;2022-12-18T05:00:14;-9.00;99.90
29939;DHT22;16799;50.844;5.304;2022-12-18T05:02:40;-9.20;99.90
29939;DHT22;16799;50.844;5.304;2022-12-18T05:05:06;-9.30;99.90
29939;DHT22;16799;50.844;5.304;2022-12-18T05:07:32;-9.30;99.90
29939;DHT22;16799;50.844;5.304;2022-12-18T05:09:58;-9.10;99.90
29939;DHT22;16799;50.844;5.304;2022-12-18T05:12:24;-9.00;99.90
29939;DHT22;16799;50.844;5.304;2022-12-18T05:14:50;-8.90;99.90
29939;DHT22;16799;50.844;5.304;2022-12-18T05:17:15;-8.90;99.90
29939;DHT22;16799;50.844;5.304;2022-12-18T05:19:41;-8.80;99.90
29939;DHT22;16799;50.844;5.304;2022-12-18T05:22:07;-8.80;99.90
29939;DHT22;16799;50.844;5.304;2022-12-18T05:24:33;-8.80;99.90
29939;DHT22;16799;50.844;5.304;2022-12-18T05:26:59;-8.70;99.90
29939;DHT22;16799;50.844;5.304;2022-12-18T05:29:24;-8.70;99.90
29939;DHT22;16799;50.844;5.304;2022-12-18T05:31:50;-8.60;99.90
29939;DHT22;16799;50.844;5.304;2022-12-18T05:34:16;-8.70;99.90
29939;DHT22;16799;50.844;5.304;2022-12-18T05:36:42;-8.60;99.90
29939;DHT22;16799;50.844;5.304;2022-12-18T05:39:08;-8.60;99.90
29939;DHT22;16799;50.844;5.304;2022-12-18T05:41:34;-8.80;99.90
29939;DHT22;16799;50.844;5.304;2022-12-18T05:44:00;-8.90;99.90
29939;DHT22;16799;50.844;5.304;2022-12-18T05:46:26;-8.70;99.90
29939;DHT22;16799;50.844;5.304;2022-12-18T05:48:52;-8.80;99.90
29939;DHT22;16799;50.844;5.304;2022-12-18T05:51:20;-8.80;99.90
29939;DHT22;16799;50.844;5.304;2022-12-18T05:53:46;-8.70;99.90
29939;DHT22;16799;50.844;5.304;2022-12-18T05:56:18;-8.70;99.90
29939;DHT22;16799;50.844;5.304;2022-12-18T05:58:45;-8.90;99.90
29939;DHT22;16799;50.844;5.304;2022-12-18T06:01:17;-9.00;99.90
29939;DHT22;16799;50.844;5.304;2022-12-18T06:03:43;-9.10;99.90
29939;DHT22;16799;50.844;5.304;2022-12-18T06:06:21;-9.00;99.90
29939;DHT22;16799;50.844;5.304;2022-12-18T06:08:48;-8.90;99.90
29939;DHT22;16799;50.844;5.304;2022-12-18T06:11:17;-8.80;99.90
29939;DHT22;16799;50.844;5.304;2022-12-18T06:13:43;-8.80;99.90
29939;DHT22;16799;50.844;5.304;2022-12-18T06:16:09;-8.80;99.90
29939;DHT22;16799;50.844;5.304;2022-12-18T06:18:38;-8.80;99.90
29939;DHT22;16799;50.844;5.304;2022-12-18T06:21:04;-8.90;99.90
29939;DHT22;16799;50.844;5.304;2022-12-18T06:23:30;-8.80;99.90
29939;DHT22;16799;50.844;5.304;2022-12-18T06:25:55;-8.80;99.90
29939;DHT22;16799;50.844;5.304;2022-12-18T06:28:21;-8.90;99.90
29939;DHT22;16799;50.844;5.304;2022-12-18T06:30:47;-8.80;99.90
29939;DHT22;16799;50.844;5.304;2022-12-18T06:33:14;-8.90;99.90
29939;DHT22;16799;50.844;5.304;2022-12-18T06:35:40;-8.90;99.90
29939;DHT22;16799;50.844;5.304;2022-12-18T06:38:06;-9.00;99.90
29939;DHT22;16799;50.844;5.304;2022-12-18T06:40:32;-9.00;99.90
29939;DHT22;16799;50.844;5.304;2022-12-18T06:42:58;-8.90;99.90
29939;DHT22;16799;50.844;5.304;2022-12-18T06:45:24;-8.90;99.90
29939;DHT22;16799;50.844;5.304;2022-12-18T06:47:50;-9.00;99.90
29939;DHT22;16799;50.844;5.304;2022-12-18T06:50:15;-9.10;99.90
29939;DHT22;16799;50.844;5.304;2022-12-18T06:52:41;-9.10;99.90
29939;DHT22;16799;50.844;5.304;2022-12-18T06:55:09;-9.00;99.90
29939;DHT22;16799;50.844;5.304;2022-12-18T06:57:36;-9.00;99.90
29939;DHT22;16799;50.844;5.304;2022-12-18T07:00:03;-9.10;99.90
29939;DHT22;16799;50.844;5.304;2022-12-18T07:02:29;-9.00;99.90
29939;DHT22;16799;50.844;5.304;2022-12-18T07:04:55;-9.10;99.90
29939;DHT22;16799;50.844;5.304;2022-12-18T07:07:20;-9.20;99.90
29939;DHT22;16799;50.844;5.304;2022-12-18T07:09:46;-9.20;99.90
29939;DHT22;16799;50.844;5.304;2022-12-18T07:12:12;-9.10;99.90
29939;DHT22;16799;50.844;5.304;2022-12-18T07:14:38;-9.10;99.90
29939;DHT22;16799;50.844;5.304;2022-12-18T07:17:04;-9.20;99.90
29939;DHT22;16799;50.844;5.304;2022-12-18T07:19:29;-9.30;99.90
29939;DHT22;16799;50.844;5.304;2022-12-18T07:21:55;-9.20;99.90
29939;DHT22;16799;50.844;5.304;2022-12-18T07:24:21;-9.20;99.90
29939;DHT22;16799;50.844;5.304;2022-12-18T07:26:47;-9.30;99.90
29939;DHT22;16799;50.844;5.304;2022-12-18T07:29:12;-9.20;99.90
29939;DHT22;16799;50.844;5.304;2022-12-18T07:31:38;-9.20;99.90
29939;DHT22;16799;50.844;5.304;2022-12-18T07:34:04;-9.20;99.90
29939;DHT22;16799;50.844;5.304;2022-12-18T07:36:29;-9.30;99.90
29939;DHT22;16799;50.844;5.304;2022-12-18T07:38:55;-9.20;99.90
29939;DHT22;16799;50.844;5.304;2022-12-18T07:41:21;-9.10;99.90
29939;DHT22;16799;50.844;5.304;2022-12-18T07:43:47;-8.80;99.90
29939;DHT22;16799;50.844;5.304;2022-12-18T07:46:14;-8.80;99.90
29939;DHT22;16799;50.844;5.304;2022-12-18T07:48:41;-8.70;99.90
29939;DHT22;16799;50.844;5.304;2022-12-18T07:51:07;-8.70;99.90
29939;DHT22;16799;50.844;5.304;2022-12-18T07:53:34;-8.70;99.90
29939;DHT22;16799;50.844;5.304;2022-12-18T07:56:03;-8.60;99.90
29939;DHT22;16799;50.844;5.304;2022-12-18T07:58:29;-8.60;99.90
29939;DHT22;16799;50.844;5.304;2022-12-18T08:01:06;-8.50;99.90
29939;DHT22;16799;50.844;5.304;2022-12-18T08:03:32;-8.50;99.90
29939;DHT22;16799;50.844;5.304;2022-12-18T08:06:00;-8.60;99.90
29939;DHT22;16799;50.844;5.304;2022-12-18T08:08:25;-8.60;99.90
29939;DHT22;16799;50.844;5.304;2022-12-18T08:10:51;-8.60;99.90
29939;DHT22;16799;50.844;5.304;2022-12-18T08:13:16;-8.60;99.90
29939;DHT22;16799;50.844;5.304;2022-12-18T08:15:42;-8.50;99.90
29939;DHT22;16799;50.844;5.304;2022-12-18T08:18:08;-8.40;99.90
29939;DHT22;16799;50.844;5.304;2022-12-18T08:20:33;-8.20;99.90
29939;DHT22;16799;50.844;5.304;2022-12-18T08:22:59;-8.10;99.90
29939;DHT22;16799;50.844;5.304;2022-12-18T08:25:24;-7.90;99.90
29939;DHT22;16799;50.844;5.304;2022-12-18T08:27:50;-7.80;99.90
29939;DHT22;16799;50.844;5.304;2022-12-18T08:30:16;-7.70;99.90
29939;DHT22;16799;50.844;5.304;2022-12-18T08:32:41;-7.50;99.90
29939;DHT22;16799;50.844;5.304;2022-12-18T08:35:07;-7.30;99.90
29939;DHT22;16799;50.844;5.304;2022-12-18T08:37:34;-7.30;99.90
29939;DHT22;16799;50.844;5.304;2022-12-18T08:40:00;-7.30;99.90
29939;DHT22;16799;50.844;5.304;2022-12-18T08:42:25;-7.20;99.90
29939;DHT22;16799;50.844;5.304;2022-12-18T08:45:10;-7.00;99.90
29939;DHT22;16799;50.844;5.304;2022-12-18T08:47:35;-6.80;99.90
29939;DHT22;16799;50.844;5.304;2022-12-18T08:50:01;-6.50;99.90
29939;DHT22;16799;50.844;5.304;2022-12-18T08:52:27;-6.30;99.90
29939;DHT22;16799;50.844;5.304;2022-12-18T08:54:53;-6.20;99.90
29939;DHT22;16799;50.844;5.304;2022-12-18T08:57:19;-6.10;99.90
29939;DHT22;16799;50.844;5.304;2022-12-18T08:59:44;-5.80;99.90
29939;DHT22;16799;50.844;5.304;2022-12-18T09:02:11;-5.50;99.90
29939;DHT22;16799;50.844;5.304;2022-12-18T09:04:37;-5.30;99.90
29939;DHT22;16799;50.844;5.304;2022-12-18T09:07:02;-5.10;99.90
29939;DHT22;16799;50.844;5.304;2022-12-18T09:09:28;-4.90;99.90
29939;DHT22;16799;50.844;5.304;2022-12-18T09:11:54;-4.80;99.90
29939;DHT22;16799;50.844;5.304;2022-12-18T09:14:19;-4.50;99.90
29939;DHT22;16799;50.844;5.304;2022-12-18T09:16:45;-4.20;99.90
29939;DHT22;16799;50.844;5.304;2022-12-18T09:19:11;-4.10;99.90
29939;DHT22;16799;50.844;5.304;2022-12-18T09:21:36;-3.90;99.90
29939;DHT22;16799;50.844;5.304;2022-12-18T09:24:03;-3.60;99.90
29939;DHT22;16799;50.844;5.304;2022-12-18T09:26:29;-3.40;99.90
29939;DHT22;16799;50.844;5.304;2022-12-18T09:28:55;-3.20;99.90
29939;DHT22;16799;50.844;5.304;2022-12-18T09:31:22;-3.00;99.90
29939;DHT22;16799;50.844;5.304;2022-12-18T09:33:48;-2.90;99.90
29939;DHT22;16799;50.844;5.304;2022-12-18T09:36:15;-2.80;99.90
29939;DHT22;16799;50.844;5.304;2022-12-18T09:38:42;-2.60;99.90
29939;DHT22;16799;50.844;5.304;2022-12-18T09:43:53;-2.00;99.90
29939;DHT22;16799;50.844;5.304;2022-12-18T09:46:26;-1.80;99.90
29939;DHT22;16799;50.844;5.304;2022-12-18T09:48:58;-1.60;99.90
29939;DHT22;16799;50.844;5.304;2022-12-18T09:51:30;-1.50;99.90
29939;DHT22;16799;50.844;5.304;2022-12-18T09:54:04;-1.50;99.90
29939;DHT22;16799;50.844;5.304;2022-12-18T09:56:35;-1.40;99.90
29939;DHT22;16799;50.844;5.304;2022-12-18T09:59:04;-1.30;99.90
29939;DHT22;16799;50.844;5.304;2022-12-18T10:01:31;-1.30;99.90
29939;DHT22;16799;50.844;5.304;2022-12-18T10:03:57;-1.40;99.90
29939;DHT22;16799;50.844;5.304;2022-12-18T10:06:46;-1.50;99.90
29939;DHT22;16799;50.844;5.304;2022-12-18T10:09:38;-1.40;99.90
29939;DHT22;16799;50.844;5.304;2022-12-18T10:17:15;-1.30;99.90
29939;DHT22;16799;50.844;5.304;2022-12-18T10:19:55;-1.30;99.90
29939;DHT22;16799;50.844;5.304;2022-12-18T10:25:22;-1.20;99.90
29939;DHT22;16799;50.844;5.304;2022-12-18T10:27:55;-1.10;99.90
29939;DHT22;16799;50.844;5.304;2022-12-18T10:30:23;-1.00;99.90
29939;DHT22;16799;50.844;5.304;2022-12-18T10:32:49;-0.90;99.90
29939;DHT22;16799;50.844;5.304;2022-12-18T10:35:26;-1.00;99.90
29939;DHT22;16799;50.844;5.304;2022-12-18T10:38:28;-0.80;99.90
29939;DHT22;16799;50.844;5.304;2022-12-18T10:40:59;-0.80;99.90
29939;DHT22;16799;50.844;5.304;2022-12-18T10:43:29;-0.80;99.90
29939;DHT22;16799;50.844;5.304;2022-12-18T10:46:15;-0.80;99.90
29939;DHT22;16799;50.844;5.304;2022-12-18T10:51:34;-1.00;99.90
29939;DHT22;16799;50.844;5.304;2022-12-18T10:54:15;-1.10;99.90
29939;DHT22;16799;50.844;5.304;2022-12-18T10:56:42;-1.10;99.90
29939;DHT22;16799;50.844;5.304;2022-12-18T10:59:10;-1.10;99.90
29939;DHT22;16799;50.844;5.304;2022-12-18T11:01:58;-1.00;99.90
29939;DHT22;16799;50.844;5.304;2022-12-18T11:04:29;-0.90;99.90
29939;DHT22;16799;50.844;5.304;2022-12-18T11:07:03;-1.00;99.90
29939;DHT22;16799;50.844;5.304;2022-12-18T11:09:30;-0.80;99.90
29939;DHT22;16799;50.844;5.304;2022-12-18T11:12:02;-0.90;99.90
29939;DHT22;16799;50.844;5.304;2022-12-18T11:14:49;-1.10;99.90
29939;DHT22;16799;50.844;5.304;2022-12-18T11:17:27;-1.10;99.90
29939;DHT22;16799;50.844;5.304;2022-12-18T11:20:04;-1.00;99.90
29939;DHT22;16799;50.844;5.304;2022-12-18T11:22:35;-0.70;99.90
29939;DHT22;16799;50.844;5.304;2022-12-18T11:25:22;-0.60;99.90
29939;DHT22;16799;50.844;5.304;2022-12-18T11:27:53;-0.60;99.90
29939;DHT22;16799;50.844;5.304;2022-12-18T11:32:48;-0.50;99.90
29939;DHT22;16799;50.844;5.304;2022-12-18T11:35:23;-0.40;99.90
29939;DHT22;16799;50.844;5.304;2022-12-18T11:37:57;-0.40;99.90
29939;DHT22;16799;50.844;5.304;2022-12-18T11:40:35;-0.20;99.90
29939;DHT22;16799;50.844;5.304;2022-12-18T11:43:14;-0.20;99.90
29939;DHT22;16799;50.844;5.304;2022-12-18T11:45:56;0.20;99.90
29939;DHT22;16799;50.844;5.304;2022-12-18T11:48:27;0.40;99.90
29939;DHT22;16799;50.844;5.304;2022-12-18T11:50:59;0.40;99.90
29939;DHT22;16799;50.844;5.304;2022-12-18T11:53:26;0.40;99.90
29939;DHT22;16799;50.844;5.304;2022-12-18T11:56:19;0.50;99.90
29939;DHT22;16799;50.844;5.304;2022-12-18T12:05:14;0.70;99.90
29939;DHT22;16799;50.844;5.304;2022-12-18T12:14:06;0.70;99.90
29939;DHT22;16799;50.844;5.304;2022-12-18T12:19:51;0.80;99.90
29939;DHT22;16799;50.844;5.304;2022-12-18T12:27:44;0.90;99.90
29939;DHT22;16799;50.844;5.304;2022-12-18T12:30:20;0.80;99.90
29939;DHT22;16799;50.844;5.304;2022-12-18T12:38:13;1.00;99.90
29939;DHT22;16799;50.844;5.304;2022-12-18T12:40:48;1.10;99.90
29939;DHT22;16799;50.844;5.304;2022-12-18T12:46:27;1.10;99.90
29939;DHT22;16799;50.844;5.304;2022-12-18T12:49:10;1.20;99.90
29939;DHT22;16799;50.844;5.304;2022-12-18T12:51:40;1.20;99.90
29939;DHT22;16799;50.844;5.304;2022-12-18T12:54:16;1.20;99.90
29939;DHT22;16799;50.844;5.304;2022-12-18T12:56:48;1.40;99.90
29939;DHT22;16799;50.844;5.304;2022-12-18T13:10:34;1.60;99.90
29939;DHT22;16799;50.844;5.304;2022-12-18T13:15:37;1.70;99.90
29939;DHT22;16799;50.844;5.304;2022-12-18T13:20:42;1.70;99.90
29939;DHT22;16799;50.844;5.304;2022-12-18T13:26:27;1.90;99.90
29939;DHT22;16799;50.844;5.304;2022-12-18T13:31:57;2.00;99.90
29939;DHT22;16799;50.844;5.304;2022-12-18T13:36:48;1.80;99.90
29939;DHT22;16799;50.844;5.304;2022-12-18T13:41:41;1.80;99.90
29939;DHT22;16799;50.844;5.304;2022-12-18T13:46:54;1.60;99.90
29939;DHT22;16799;50.844;5.304;2022-12-18T13:49:41;1.70;99.90
29939;DHT22;16799;50.844;5.304;2022-12-18T13:52:28;1.90;99.90
29939;DHT22;16799;50.844;5.304;2022-12-18T13:54:59;1.90;99.90
29939;DHT22;16799;50.844;5.304;2022-12-18T13:57:35;1.90;99.90
29939;DHT22;16799;50.844;5.304;2022-12-18T14:02:47;1.90;99.90
29939;DHT22;16799;50.844;5.304;2022-12-18T14:05:25;1.90;99.90
29939;DHT22;16799;50.844;5.304;2022-12-18T14:07:52;2.10;99.90
29939;DHT22;16799;50.844;5.304;2022-12-18T14:10:19;1.90;99.90
29939;DHT22;16799;50.844;5.304;2022-12-18T14:12:48;2.00;99.90
29939;DHT22;16799;50.844;5.304;2022-12-18T14:17:50;1.90;99.90
29939;DHT22;16799;50.844;5.304;2022-12-18T14:20:17;1.80;99.90
29939;DHT22;16799;50.844;5.304;2022-12-18T14:22:45;1.80;99.90
29939;DHT22;16799;50.844;5.304;2022-12-18T14:28:00;1.80;99.90
29939;DHT22;16799;50.844;5.304;2022-12-18T14:30:36;1.90;99.90
29939;DHT22;16799;50.844;5.304;2022-12-18T14:35:36;1.70;99.90
29939;DHT22;16799;50.844;5.304;2022-12-18T14:41:01;1.80;99.90
29939;DHT22;16799;50.844;5.304;2022-12-18T14:43:31;1.90;99.90
29939;DHT22;16799;50.844;5.304;2022-12-18T14:45:57;1.80;99.90
29939;DHT22;16799;50.844;5.304;2022-12-18T14:48:34;1.70;99.90
29939;DHT22;16799;50.844;5.304;2022-12-18T14:51:05;1.70;99.90
29939;DHT22;16799;50.844;5.304;2022-12-18T14:53:40;1.70;99.90
29939;DHT22;16799;50.844;5.304;2022-12-18T14:58:47;1.60;99.90
29939;DHT22;16799;50.844;5.304;2022-12-18T15:01:23;1.50;99.90
29939;DHT22;16799;50.844;5.304;2022-12-18T15:03:51;1.40;99.90
29939;DHT22;16799;50.844;5.304;2022-12-18T15:08:58;1.30;99.90
29939;DHT22;16799;50.844;5.304;2022-12-18T15:17:01;1.30;99.90
29939;DHT22;16799;50.844;5.304;2022-12-18T15:19:40;1.20;99.90
29939;DHT22;16799;50.844;5.304;2022-12-18T15:22:27;1.10;99.90
29939;DHT22;16799;50.844;5.304;2022-12-18T15:24:55;1.20;99.90
29939;DHT22;16799;50.844;5.304;2022-12-18T15:27:26;1.30;99.90
29939;DHT22;16799;50.844;5.304;2022-12-18T15:32:34;1.40;99.90
29939;DHT22;16799;50.844;5.304;2022-12-18T15:37:34;1.10;99.90
29939;DHT22;16799;50.844;5.304;2022-12-18T15:40:00;1.20;99.90
29939;DHT22;16799;50.844;5.304;2022-12-18T15:42:27;1.30;99.90
29939;DHT22;16799;50.844;5.304;2022-12-18T15:45:13;1.30;99.90
29939;DHT22;16799;50.844;5.304;2022-12-18T15:47:39;1.40;99.90
29939;DHT22;16799;50.844;5.304;2022-12-18T15:50:05;1.40;99.90
29939;DHT22;16799;50.844;5.304;2022-12-18T15:52:39;1.40;99.90
29939;DHT22;16799;50.844;5.304;2022-12-18T15:55:14;1.40;99.90
29939;DHT22;16799;50.844;5.304;2022-12-18T15:57:58;1.30;99.90
29939;DHT22;16799;50.844;5.304;2022-12-18T16:00:24;1.30;99.90
29939;DHT22;16799;50.844;5.304;2022-12-18T16:02:50;1.20;99.90
29939;DHT22;16799;50.844;5.304;2022-12-18T16:05:17;1.30;99.90
29939;DHT22;16799;50.844;5.304;2022-12-18T16:07:43;1.30;99.90
29939;DHT22;16799;50.844;5.304;2022-12-18T16:10:09;1.40;99.90
29939;DHT22;16799;50.844;5.304;2022-12-18T16:12:35;1.50;99.90
29939;DHT22;16799;50.844;5.304;2022-12-18T16:15:01;1.50;99.90
29939;DHT22;16799;50.844;5.304;2022-12-18T16:17:27;1.40;99.90
29939;DHT22;16799;50.844;5.304;2022-12-18T16:19:53;1.30;99.90
29939;DHT22;16799;50.844;5.304;2022-12-18T16:22:27;1.30;99.90
29939;DHT22;16799;50.844;5.304;2022-12-18T16:24:54;1.30;99.90
29939;DHT22;16799;50.844;5.304;2022-12-18T16:27:21;1.30;99.90
29939;DHT22;16799;50.844;5.304;2022-12-18T16:29:47;1.30;99.90
29939;DHT22;16799;50.844;5.304;2022-12-18T16:32:18;1.30;99.90
29939;DHT22;16799;50.844;5.304;2022-12-18T16:34:45;1.30;99.80
29939;DHT22;16799;50.844;5.304;2022-12-18T16:37:12;1.30;99.50
29939;DHT22;16799;50.844;5.304;2022-12-18T16:39:39;1.30;99.70
29939;DHT22;16799;50.844;5.304;2022-12-18T16:42:11;1.20;99.90
29939;DHT22;16799;50.844;5.304;2022-12-18T16:44:40;1.30;99.90
29939;DHT22;16799;50.844;5.304;2022-12-18T16:47:05;1.40;99.90
29939;DHT22;16799;50.844;5.304;2022-12-18T16:49:31;1.50;99.60
29939;DHT22;16799;50.844;5.304;2022-12-18T16:51:57;1.30;99.90
29939;DHT22;16799;50.844;5.304;2022-12-18T16:54:23;1.50;99.20
29939;DHT22;16799;50.844;5.304;2022-12-18T16:56:50;1.60;98.40
29939;DHT22;16799;50.844;5.304;2022-12-18T16:59:16;1.60;98.10
29939;DHT22;16799;50.844;5.304;2022-12-18T17:01:42;1.70;97.60
29939;DHT22;16799;50.844;5.304;2022-12-18T17:04:08;1.70;96.90
29939;DHT22;16799;50.844;5.304;2022-12-18T17:06:38;1.70;97.40
29939;DHT22;16799;50.844;5.304;2022-12-18T17:09:06;1.70;97.10
29939;DHT22;16799;50.844;5.304;2022-12-18T17:11:34;1.70;97.40
29939;DHT22;16799;50.844;5.304;2022-12-18T17:14:06;1.80;97.10
29939;DHT22;16799;50.844;5.304;2022-12-18T17:16:31;1.70;97.50
29939;DHT22;16799;50.844;5.304;2022-12-18T17:18:57;1.80;96.40
29939;DHT22;16799;50.844;5.304;2022-12-18T17:21:23;1.80;95.90
29939;DHT22;16799;50.844;5.304;2022-12-18T17:23:48;1.80;95.80
29939;DHT22;16799;50.844;5.304;2022-12-18T17:26:14;1.80;95.10
29939;DHT22;16799;50.844;5.304;2022-12-18T17:28:40;1.80;95.20
29939;DHT22;16799;50.844;5.304;2022-12-18T17:31:18;1.90;95.40
29939;DHT22;16799;50.844;5.304;2022-12-18T17:33:44;1.80;94.80
29939;DHT22;16799;50.844;5.304;2022-12-18T17:36:11;1.90;95.40
29939;DHT22;16799;50.844;5.304;2022-12-18T17:38:37;1.90;95.10
29939;DHT22;16799;50.844;5.304;2022-12-18T17:41:05;1.90;94.90
29939;DHT22;16799;50.844;5.304;2022-12-18T17:43:31;1.90;94.00
29939;DHT22;16799;50.844;5.304;2022-12-18T17:46:04;1.80;94.80
29939;DHT22;16799;50.844;5.304;2022-12-18T17:48:30;1.80;94.80
29939;DHT22;16799;50.844;5.304;2022-12-18T17:51:04;1.90;94.50